Time;durP1;ratioP1;P1;durP2;ratioP2;P2;SDS_P1;SDS_P2;PMS_P1;PMS_P2;Temp;Humidity;BMP_temperature;BMP_pressure;BME280_temperature;BME280_humidity;BME280_pressure;Samples;Min_cycle;Max_cycle;Signal;HPM_P1;HPM_P2
2021/08/10 00:00:06;;;;;;;1.27;1.13;;;20.30;64.80;;;;;;4919449;29;20044;-83
2021/08/10 00:02:36;;;;;;;1.45;1.35;;;20.30;64.90;;;;;;4919153;29;20063;-84
2021/08/10 00:05:05;;;;;;;1.48;1.25;;;20.30;64.90;;;;;;4919471;29;20059;-84
2021/08/10 00:07:31;;;;;;;1.67;1.33;;;20.30;65.00;;;;;;4919189;29;20031;-85
2021/08/10 00:09:56;;;;;;;2.25;1.50;;;20.30;65.00;;;;;;4919152;29;20028;-84
2021/08/10 00:12:22;;;;;;;2.22;1.52;;;20.20;65.00;;;;;;4918863;29;20055;-84
2021/08/10 00:14:48;;;;;;;2.38;1.48;;;20.20;65.00;;;;;;4903301;29;20477;-84
2021/08/10 00:17:14;;;;;;;2.30;1.52;;;20.20;65.00;;;;;;4903455;29;20059;-83
2021/08/10 00:19:40;;;;;;;1.67;1.38;;;20.20;65.10;;;;;;4919014;29;20063;-84
2021/08/10 00:22:06;;;;;;;1.83;1.38;;;20.10;65.00;;;;;;4917662;29;20082;-84
2021/08/10 00:24:32;;;;;;;2.28;1.65;;;20.10;65.10;;;;;;4903234;29;20039;-85
2021/08/10 00:27:00;;;;;;;1.58;1.38;;;20.10;65.10;;;;;;4902962;29;20477;-84
2021/08/10 00:29:27;;;;;;;2.03;1.40;;;20.10;65.80;;;;;;4918640;29;20028;-85
2021/08/10 00:31:52;;;;;;;2.60;1.45;;;20.10;65.20;;;;;;4903294;29;20448;-84
2021/08/10 00:34:19;;;;;;;1.58;1.23;;;20.10;65.20;;;;;;4934634;29;20036;-85
2021/08/10 00:36:45;;;;;;;1.35;1.25;;;20.00;65.20;;;;;;4888300;29;20458;-85
2021/08/10 00:39:12;;;;;;;1.83;1.45;;;20.00;65.20;;;;;;4903066;29;20032;-85
2021/08/10 00:41:41;;;;;;;2.22;1.40;;;20.00;65.20;;;;;;4903749;29;20040;-85
2021/08/10 00:44:10;;;;;;;1.65;1.30;;;20.00;65.30;;;;;;4903203;29;20453;-84
2021/08/10 00:46:36;;;;;;;2.15;1.40;;;20.00;65.30;;;;;;4902699;29;20035;-84
2021/08/10 00:49:02;;;;;;;1.92;1.52;;;20.00;65.40;;;;;;4902854;29;20043;-85
2021/08/10 00:51:33;;;;;;;1.92;1.30;;;19.90;65.30;;;;;;4903325;29;20028;-84
2021/08/10 00:54:05;;;;;;;2.50;1.42;;;19.90;65.30;;;;;;4903476;29;20388;-84
2021/08/10 00:56:32;;;;;;;2.00;1.50;;;20.00;65.40;;;;;;4903563;29;20480;-84
2021/08/10 00:59:02;;;;;;;1.88;1.48;;;19.90;65.40;;;;;;4902778;29;20118;-85
2021/08/10 01:01:34;;;;;;;1.45;1.20;;;19.90;65.50;;;;;;4903809;29;20044;-83
2021/08/10 01:04:00;;;;;;;1.88;1.40;;;19.90;65.40;;;;;;4902328;29;20036;-84
2021/08/10 01:06:46;;;;;;;1.80;1.33;;;19.90;65.40;;;;;;4902754;29;20051;-85
2021/08/10 01:09:19;;;;;;;1.83;1.58;;;19.90;65.50;;;;;;4934231;29;20063;-84
2021/08/10 01:12:01;;;;;;;1.90;1.30;;;19.80;65.40;;;;;;4918271;29;20123;-84
2021/08/10 01:14:46;;;;;;;1.63;1.33;;;19.80;65.60;;;;;;4902408;29;20437;-86
2021/08/10 01:17:32;;;;;;;1.80;1.40;;;19.80;65.60;;;;;;4902864;29;20032;-85
2021/08/10 01:20:16;;;;;;;1.90;1.50;;;19.80;65.70;;;;;;4918091;29;20028;-84
2021/08/10 01:22:52;;;;;;;2.47;1.60;;;19.80;65.60;;;;;;4917904;29;20135;-83
2021/08/10 01:25:54;;;;;;;1.48;1.27;;;19.80;65.70;;;;;;4917883;29;20105;-85
2021/08/10 01:28:52;;;;;;;1.42;1.27;;;19.80;65.80;;;;;;4903025;29;20027;-84
2021/08/10 01:31:27;;;;;;;1.35;1.25;;;19.70;65.70;;;;;;4918590;29;20032;-85
2021/08/10 01:34:12;;;;;;;1.80;1.45;;;19.70;65.80;;;;;;4917783;29;20032;-85
2021/08/10 01:36:41;;;;;;;2.05;1.23;;;19.60;65.80;;;;;;4918120;29;20028;-85
2021/08/10 01:39:10;;;;;;;1.35;1.20;;;19.70;65.80;;;;;;4901779;29;20035;-85
2021/08/10 01:41:47;;;;;;;1.58;1.33;;;19.60;65.80;;;;;;4918152;29;20036;-85
2021/08/10 01:44:15;;;;;;;2.25;1.50;;;19.60;65.80;;;;;;4902155;29;20050;-85
2021/08/10 01:46:41;;;;;;;2.25;1.50;;;19.60;65.90;;;;;;4917919;29;20024;-84
2021/08/10 01:49:17;;;;;;;1.67;1.50;;;19.60;65.90;;;;;;4902472;29;20425;-84
2021/08/10 01:51:45;;;;;;;1.85;1.48;;;19.60;65.90;;;;;;4933633;29;20060;-85
2021/08/10 01:54:13;;;;;;;1.77;1.42;;;19.60;65.90;;;;;;4902904;29;20509;-85
2021/08/10 01:56:40;;;;;;;1.98;1.40;;;19.60;65.90;;;;;;4902411;29;20123;-85
2021/08/10 01:59:08;;;;;;;1.48;1.27;;;19.60;66.00;;;;;;4917299;29;20031;-84
2021/08/10 02:01:38;;;;;;;2.28;1.45;;;19.60;66.00;;;;;;4933335;29;20363;-84
2021/08/10 02:04:05;;;;;;;1.45;1.30;;;19.50;65.90;;;;;;4933224;29;20488;-83
2021/08/10 02:06:31;;;;;;;1.50;1.30;;;19.60;66.00;;;;;;4917345;29;20032;-85
2021/08/10 02:09:02;;;;;;;1.90;1.40;;;19.50;66.00;;;;;;4933477;29;20032;-84
2021/08/10 02:11:31;;;;;;;1.60;1.50;;;19.60;66.10;;;;;;4901760;29;20033;-84
2021/08/10 02:14:02;;;;;;;1.85;1.42;;;19.50;66.00;;;;;;4917207;29;20537;-84
2021/08/10 02:16:32;;;;;;;2.35;1.50;;;19.50;66.00;;;;;;4902170;29;20028;-84
2021/08/10 02:18:59;;;;;;;1.95;1.60;;;19.50;66.10;;;;;;4917637;29;20077;-84
2021/08/10 02:21:49;;;;;;;2.95;1.83;;;19.50;66.10;;;;;;4917117;29;20465;-84
2021/08/10 02:24:34;;;;;;;2.25;1.45;;;19.50;66.80;;;;;;4901623;29;20035;-85
2021/08/10 02:27:06;;;;;;;1.95;1.52;;;19.50;66.20;;;;;;4917295;29;20043;-85
2021/08/10 02:29:39;;;;;;;1.60;1.20;;;19.50;66.10;;;;;;4933023;29;20032;-83
2021/08/10 02:32:11;;;;;;;1.67;1.52;;;19.50;66.20;;;;;;4901631;29;20079;-83
2021/08/10 02:34:41;;;;;;;1.83;1.50;;;19.50;66.20;;;;;;4912705;29;20044;-84
2021/08/10 02:37:12;;;;;;;1.58;1.38;;;19.40;66.20;;;;;;4916753;29;20029;-83
2021/08/10 02:39:39;;;;;;;1.40;1.30;;;19.40;66.20;;;;;;4917365;29;20469;-83
2021/08/10 02:42:07;;;;;;;1.58;1.40;;;19.40;66.20;;;;;;4902397;29;20032;-85
2021/08/10 02:44:36;;;;;;;1.83;1.50;;;19.40;66.30;;;;;;4902427;29;20115;-84
2021/08/10 02:47:03;;;;;;;2.17;1.48;;;19.40;66.30;;;;;;4907154;29;20036;-85
2021/08/10 02:49:29;;;;;;;2.22;1.50;;;19.40;66.30;;;;;;4905501;29;20441;-85
2021/08/10 02:51:55;;;;;;;1.45;1.20;;;19.40;66.30;;;;;;4905313;29;20050;-84
2021/08/10 02:54:23;;;;;;;1.90;1.52;;;19.40;66.30;;;;;;4920584;29;20078;-85
2021/08/10 02:57:02;;;;;;;2.47;1.48;;;19.40;66.30;;;;;;4905074;29;20428;-84
2021/08/10 02:59:38;;;;;;;2.05;1.35;;;19.40;66.40;;;;;;4905199;29;20040;-84
2021/08/10 03:02:14;;;;;;;1.65;1.38;;;19.40;66.50;;;;;;4905213;29;20087;-85
2021/08/10 03:05:15;;;;;;;1.98;1.38;;;19.30;66.40;;;;;;4920930;29;20128;-84
2021/08/10 03:07:57;;;;;;;1.83;1.65;;;19.40;66.50;;;;;;4904403;29;20072;-85
2021/08/10 03:10:27;;;;;;;1.30;1.15;;;19.40;66.50;;;;;;4936684;29;20036;-85
2021/08/10 03:12:54;;;;;;;1.95;1.40;;;19.30;66.40;;;;;;4935985;29;20056;-84
2021/08/10 03:15:25;;;;;;;1.38;1.20;;;19.30;66.40;;;;;;4904954;29;20032;-84
2021/08/10 03:17:55;;;;;;;1.65;1.40;;;19.30;66.50;;;;;;4904567;29;20032;-84
2021/08/10 03:20:23;;;;;;;1.85;1.50;;;19.30;66.50;;;;;;4920007;29;20031;-85
2021/08/10 03:22:51;;;;;;;1.80;1.48;;;19.30;66.50;;;;;;4919852;29;20083;-84
2021/08/10 03:25:19;;;;;;;1.90;1.42;;;19.30;66.60;;;;;;4905128;29;20144;-86
2021/08/10 03:27:49;;;;;;;2.03;1.50;;;19.30;66.50;;;;;;4921534;29;20028;-84
2021/08/10 03:30:16;;;;;;;2.17;1.65;;;19.30;66.50;;;;;;4905003;29;20068;-84
2021/08/10 03:32:44;;;;;;;1.65;1.50;;;19.30;66.60;;;;;;4905546;29;20059;-85
2021/08/10 03:35:10;;;;;;;2.63;1.60;;;19.30;66.50;;;;;;4904888;29;20493;-84
2021/08/10 03:37:37;;;;;;;1.58;1.40;;;19.20;66.50;;;;;;4921139;29;20027;-84
2021/08/10 03:40:05;;;;;;;2.00;1.52;;;19.30;66.60;;;;;;4920550;29;20123;-84
2021/08/10 03:42:33;;;;;;;1.48;1.23;;;19.30;66.60;;;;;;4920962;29;20464;-85
2021/08/10 03:45:00;;;;;;;2.50;1.60;;;19.20;66.50;;;;;;4936245;29;20040;-85
2021/08/10 03:47:27;;;;;;;1.75;1.45;;;19.20;66.50;;;;;;4920669;29;20172;-85
2021/08/10 03:49:54;;;;;;;1.85;1.40;;;19.20;66.50;;;;;;4919331;29;20040;-85
2021/08/10 03:52:21;;;;;;;1.77;1.35;;;19.20;66.60;;;;;;4904214;29;20032;-85
2021/08/10 03:54:47;;;;;;;2.20;1.70;;;19.20;66.60;;;;;;4920481;29;20457;-85
2021/08/10 03:57:18;;;;;;;1.80;1.50;;;19.20;66.60;;;;;;4919524;29;20039;-85
2021/08/10 03:59:47;;;;;;;2.05;1.38;;;19.20;66.60;;;;;;4919932;29;20024;-85
2021/08/10 04:02:14;;;;;;;1.77;1.60;;;19.20;66.60;;;;;;4919798;29;20028;-84
2021/08/10 04:04:45;;;;;;;2.45;1.80;;;19.20;66.60;;;;;;4918896;29;20036;-81
2021/08/10 04:07:13;;;;;;;1.95;1.50;;;19.10;66.60;;;;;;4903085;29;20088;-84
2021/08/10 04:09:40;;;;;;;1.80;1.48;;;19.10;66.60;;;;;;4918868;29;20028;-83
2021/08/10 04:12:12;;;;;;;1.80;1.33;;;19.10;66.60;;;;;;4935263;29;20044;-83
2021/08/10 04:14:41;;;;;;;2.03;1.50;;;19.10;66.60;;;;;;4919158;29;20028;-82
2021/08/10 04:17:09;;;;;;;1.58;1.40;;;19.10;66.70;;;;;;4918830;29;20045;-82
2021/08/10 04:19:45;;;;;;;1.90;1.52;;;19.10;66.60;;;;;;4903737;29;20032;-83
2021/08/10 04:22:17;;;;;;;1.42;1.27;;;19.10;66.60;;;;;;4903016;29;20048;-83
2021/08/10 04:24:44;;;;;;;2.20;1.50;;;19.10;66.70;;;;;;4918783;29;20044;-84
2021/08/10 04:27:12;;;;;;;1.95;1.38;;;19.10;66.70;;;;;;4903281;29;20043;-83
2021/08/10 04:29:38;;;;;;;1.80;1.42;;;19.10;66.70;;;;;;4918304;29;20040;-83
2021/08/10 04:32:05;;;;;;;1.73;1.30;;;19.10;66.80;;;;;;4918399;29;20123;-84
2021/08/10 04:34:31;;;;;;;1.52;1.42;;;19.00;66.80;;;;;;4887229;29;20036;-82
2021/08/10 04:36:58;;;;;;;2.13;1.52;;;19.00;66.70;;;;;;4888071;29;20052;-82
2021/08/10 04:39:26;;;;;;;2.08;1.42;;;19.00;66.80;;;;;;4903665;29;20072;-83
2021/08/10 04:41:53;;;;;;;2.17;1.50;;;19.00;66.80;;;;;;4918704;29;20381;-84
2021/08/10 04:44:19;;;;;;;2.05;1.70;;;19.00;66.80;;;;;;4918280;29;20036;-83
2021/08/10 04:46:45;;;;;;;1.80;1.50;;;19.00;66.80;;;;;;4902785;29;20119;-83
2021/08/10 04:49:11;;;;;;;2.55;1.60;;;19.00;66.80;;;;;;4917964;29;20036;-84
2021/08/10 04:51:39;;;;;;;1.83;1.40;;;19.00;66.80;;;;;;4918683;29;20465;-86
2021/08/10 04:54:04;;;;;;;1.60;1.38;;;19.00;66.80;;;;;;4903784;29;20080;-84
2021/08/10 04:56:30;;;;;;;1.95;1.42;;;19.00;66.80;;;;;;4918912;29;20036;-85
2021/08/10 04:58:56;;;;;;;1.95;1.60;;;19.00;66.90;;;;;;4902851;29;20032;-86
2021/08/10 05:01:24;;;;;;;2.55;1.60;;;19.00;66.90;;;;;;4903055;29;20385;-81
2021/08/10 05:03:50;;;;;;;2.13;1.42;;;18.90;66.80;;;;;;4902276;29;20036;-84
2021/08/10 05:06:16;;;;;;;1.98;1.50;;;18.90;66.80;;;;;;4919133;29;20044;-84
2021/08/10 05:08:43;;;;;;;1.70;1.60;;;18.90;66.80;;;;;;4902410;29;20039;-88
2021/08/10 05:11:12;;;;;;;2.00;1.58;;;18.90;66.90;;;;;;4918941;29;20037;-87
2021/08/10 05:13:41;;;;;;;2.22;1.50;;;18.90;66.90;;;;;;4918894;29;20056;-85
2021/08/10 05:16:09;;;;;;;2.75;1.63;;;18.90;66.90;;;;;;4903643;29;20079;-84
2021/08/10 05:18:35;;;;;;;2.63;1.63;;;18.90;66.30;;;;;;4917877;29;20034;-82
2021/08/10 05:21:02;;;;;;;2.03;1.45;;;18.90;66.90;;;;;;4901678;29;20146;-85
2021/08/10 05:23:33;;;;;;;1.90;1.50;;;18.90;66.90;;;;;;4902199;29;20095;-84
2021/08/10 05:25:59;;;;;;;1.38;1.20;;;18.90;67.00;;;;;;4901994;29;20046;-83
2021/08/10 05:28:27;;;;;;;1.90;1.40;;;18.90;67.60;;;;;;4901988;29;20036;-83
2021/08/10 05:30:52;;;;;;;2.20;1.50;;;18.90;66.90;;;;;;4901758;29;20028;-84
2021/08/10 05:33:18;;;;;;;2.10;1.55;;;18.90;67.00;;;;;;4901819;29;20016;-84
2021/08/10 05:35:44;;;;;;;2.28;1.50;;;18.80;66.90;;;;;;4933767;29;20136;-83
2021/08/10 05:38:10;;;;;;;3.33;1.73;;;18.80;67.00;;;;;;4918851;29;20025;-84
2021/08/10 05:40:38;;;;;;;2.03;1.67;;;18.80;67.00;;;;;;4917833;29;20032;-84
2021/08/10 05:43:04;;;;;;;1.95;1.40;;;18.80;67.00;;;;;;4918298;29;20101;-84
2021/08/10 05:45:32;;;;;;;2.30;1.38;;;18.90;67.10;;;;;;4902006;29;20040;-87
2021/08/10 05:47:58;;;;;;;1.92;1.38;;;18.80;67.00;;;;;;4917146;29;20028;-84
2021/08/10 05:50:23;;;;;;;2.03;1.20;;;18.80;67.10;;;;;;4901741;29;20036;-84
2021/08/10 05:52:49;;;;;;;2.03;1.60;;;18.80;67.00;;;;;;4917289;29;20024;-83
2021/08/10 05:55:15;;;;;;;2.40;1.60;;;18.80;67.10;;;;;;4933874;29;20044;-84
2021/08/10 05:57:46;;;;;;;2.08;1.40;;;18.80;67.00;;;;;;4902678;29;20025;-84
2021/08/10 06:00:12;;;;;;;1.75;1.33;;;18.90;67.10;;;;;;4901308;29;20032;-84
2021/08/10 06:02:46;;;;;;;1.63;1.20;;;18.80;67.10;;;;;;4902308;29;20032;-83
2021/08/10 06:05:14;;;;;;;1.88;1.40;;;18.80;67.00;;;;;;4901805;29;20095;-83
2021/08/10 06:07:39;;;;;;;2.50;1.60;;;18.80;67.10;;;;;;4901855;29;20048;-83
2021/08/10 06:10:05;;;;;;;2.63;1.40;;;18.80;67.10;;;;;;4917607;29;20036;-83
2021/08/10 06:12:33;;;;;;;1.60;1.40;;;18.80;67.10;;;;;;4885944;29;20020;-82
2021/08/10 06:15:00;;;;;;;2.00;1.50;;;18.80;67.20;;;;;;4901352;29;20083;-83
2021/08/10 06:17:25;;;;;;;2.22;1.58;;;18.80;67.20;;;;;;4900936;29;20024;-82
2021/08/10 06:19:51;;;;;;;1.85;1.30;;;18.80;67.10;;;;;;4900765;29;20032;-82
2021/08/10 06:22:18;;;;;;;1.70;1.30;;;18.80;67.10;;;;;;4900977;29;20153;-82
2021/08/10 06:24:44;;;;;;;2.17;1.42;;;18.80;67.10;;;;;;4901582;29;20048;-82
2021/08/10 06:27:11;;;;;;;1.75;1.38;;;18.80;67.10;;;;;;4916184;29;20093;-82
2021/08/10 06:29:39;;;;;;;1.48;1.38;;;18.80;67.10;;;;;;4901562;29;20040;-82
2021/08/10 06:32:07;;;;;;;2.47;1.55;;;18.80;67.20;;;;;;4900908;29;20032;-82
2021/08/10 06:34:33;;;;;;;1.50;1.38;;;18.80;67.20;;;;;;4900934;29;20072;-82
2021/08/10 06:36:59;;;;;;;2.03;1.50;;;18.80;67.20;;;;;;4901383;29;20028;-82
2021/08/10 06:39:30;;;;;;;1.83;1.40;;;18.80;67.20;;;;;;4902182;29;20050;-82
2021/08/10 06:41:57;;;;;;;1.90;1.60;;;18.90;67.20;;;;;;4918335;29;20043;-82
2021/08/10 06:44:28;;;;;;;1.30;1.20;;;18.80;67.20;;;;;;4915996;29;20123;-82
2021/08/10 06:46:57;;;;;;;1.65;1.50;;;18.90;67.30;;;;;;4901638;29;20040;-82
2021/08/10 06:49:27;;;;;;;1.67;1.30;;;18.90;67.30;;;;;;4916231;29;20020;-81
2021/08/10 06:51:55;;;;;;;1.45;1.30;;;18.90;67.30;;;;;;4900833;29;20039;-81
2021/08/10 06:54:20;;;;;;;2.20;1.70;;;18.90;67.30;;;;;;4901265;29;20123;-82
2021/08/10 06:56:51;;;;;;;2.80;1.50;;;18.90;68.00;;;;;;4916552;29;20546;-82
2021/08/10 06:59:22;;;;;;;2.30;1.60;;;18.90;67.30;;;;;;4901144;29;20127;-82
2021/08/10 07:01:48;;;;;;;2.35;1.65;;;18.90;67.30;;;;;;4900944;29;20040;-83
2021/08/10 07:04:14;;;;;;;2.42;1.52;;;18.90;67.40;;;;;;4900588;29;20032;-82
2021/08/10 07:06:40;;;;;;;1.88;1.60;;;19.00;67.40;;;;;;4916761;29;20107;-82
2021/08/10 07:09:06;;;;;;;3.05;1.55;;;19.00;67.40;;;;;;4900482;29;20032;-82
2021/08/10 07:11:42;;;;;;;2.55;1.83;;;19.00;67.40;;;;;;4901936;29;20036;-82
2021/08/10 07:14:12;;;;;;;2.40;1.42;;;19.00;67.40;;;;;;4916916;29;20040;-83
2021/08/10 07:16:39;;;;;;;3.15;1.70;;;19.00;67.50;;;;;;4900531;29;20063;-82
2021/08/10 07:19:08;;;;;;;2.05;1.50;;;19.00;67.40;;;;;;4915770;29;20028;-82
2021/08/10 07:21:35;;;;;;;2.80;1.80;;;19.10;67.50;;;;;;4915814;29;20052;-82
2021/08/10 07:24:07;;;;;;;2.40;1.67;;;19.10;67.50;;;;;;4901847;29;20131;-81
2021/08/10 07:26:37;;;;;;;1.60;1.33;;;19.10;67.50;;;;;;4901100;29;20051;-82
2021/08/10 07:29:03;;;;;;;1.95;1.58;;;19.10;67.50;;;;;;4900269;29;20475;-82
2021/08/10 07:31:30;;;;;;;3.53;1.83;;;19.10;67.40;;;;;;4901516;29;20076;-82
2021/08/10 07:34:00;;;;;;;1.95;1.40;;;19.10;67.40;;;;;;4919629;29;20046;-83
2021/08/10 07:36:29;;;;;;;1.95;1.58;;;19.20;67.50;;;;;;4904337;29;20034;-81
2021/08/10 07:38:55;;;;;;;1.90;1.30;;;19.20;67.50;;;;;;4919139;29;20124;-81
2021/08/10 07:41:23;;;;;;;2.65;1.83;;;19.20;67.50;;;;;;4919171;29;20087;-82
2021/08/10 07:43:50;;;;;;;2.50;1.60;;;19.20;67.40;;;;;;4903643;29;20481;-82
2021/08/10 07:46:16;;;;;;;3.25;1.80;;;19.30;67.50;;;;;;4903531;29;20038;-81
2021/08/10 07:48:45;;;;;;;2.15;1.40;;;19.30;67.50;;;;;;4903722;29;20032;-81
2021/08/10 07:51:11;;;;;;;2.75;1.80;;;19.30;67.50;;;;;;4904063;29;20036;-82
2021/08/10 07:53:37;;;;;;;2.17;1.50;;;19.30;67.50;;;;;;4919018;29;20386;-82
2021/08/10 07:56:04;;;;;;;2.30;1.63;;;19.30;67.50;;;;;;4919704;29;20131;-82
2021/08/10 07:58:29;;;;;;;1.48;1.38;;;19.40;67.50;;;;;;4903255;29;20127;-84
2021/08/10 08:00:55;;;;;;;2.30;1.65;;;19.40;67.50;;;;;;4918830;29;20063;-81
2021/08/10 08:03:23;;;;;;;2.65;1.60;;;19.40;67.40;;;;;;4918414;29;20095;-81
2021/08/10 08:05:48;;;;;;;2.75;1.60;;;19.50;67.50;;;;;;4903841;29;20123;-81
2021/08/10 08:08:15;;;;;;;2.03;1.45;;;19.50;67.40;;;;;;4887756;29;20477;-80
2021/08/10 08:10:42;;;;;;;2.08;1.60;;;19.50;67.40;;;;;;4934775;29;20497;-82
2021/08/10 08:13:08;;;;;;;3.20;1.85;;;19.60;67.40;;;;;;4903047;29;20028;-80
2021/08/10 08:15:35;;;;;;;1.77;1.50;;;19.60;67.40;;;;;;4902850;29;20119;-81
2021/08/10 08:18:04;;;;;;;2.80;1.95;;;19.60;67.30;;;;;;4903118;29;20164;-81
2021/08/10 08:20:30;;;;;;;3.13;1.70;;;19.60;67.90;;;;;;4918725;29;20487;-81
2021/08/10 08:22:56;;;;;;;2.38;1.75;;;19.70;67.30;;;;;;4918269;29;20589;-81
2021/08/10 08:25:23;;;;;;;2.60;1.83;;;19.70;67.20;;;;;;4918294;29;20087;-81
2021/08/10 08:27:49;;;;;;;1.58;1.35;;;19.80;67.20;;;;;;4902916;29;20037;-85
2021/08/10 08:30:15;;;;;;;2.60;1.80;;;19.80;67.20;;;;;;4902837;29;20036;-81
2021/08/10 08:32:42;;;;;;;2.20;1.52;;;19.80;67.10;;;;;;4902766;29;20024;-83
2021/08/10 08:35:08;;;;;;;2.22;1.63;;;19.90;67.10;;;;;;4918245;29;20236;-81
2021/08/10 08:37:35;;;;;;;3.67;1.90;;;19.90;67.00;;;;;;4902548;29;20032;-81
2021/08/10 08:40:06;;;;;;;2.78;1.77;;;19.90;66.90;;;;;;4934699;29;20071;-81
2021/08/10 08:42:33;;;;;;;2.42;1.65;;;20.00;66.90;;;;;;4917553;29;20024;-82
2021/08/10 08:44:59;;;;;;;1.95;1.42;;;20.00;66.90;;;;;;4901979;29;20032;-81
2021/08/10 08:47:27;;;;;;;1.63;1.50;;;20.10;66.80;;;;;;4918574;29;20040;-82
2021/08/10 08:49:58;;;;;;;2.25;1.60;;;20.10;66.80;;;;;;4902594;29;20122;-81
2021/08/10 08:52:27;;;;;;;2.05;1.45;;;20.20;66.70;;;;;;4902648;29;20036;-81
2021/08/10 08:54:55;;;;;;;2.00;1.58;;;20.20;66.70;;;;;;4917747;29;20036;-82
2021/08/10 08:57:21;;;;;;;1.95;1.45;;;20.20;66.60;;;;;;4918496;29;20040;-82
2021/08/10 08:59:48;;;;;;;2.28;1.65;;;20.30;66.60;;;;;;4917737;29;20040;-81
2021/08/10 09:02:17;;;;;;;2.50;1.67;;;20.30;66.50;;;;;;4902062;29;20091;-82
2021/08/10 09:04:47;;;;;;;1.85;1.50;;;20.40;66.50;;;;;;4917694;29;20477;-81
2021/08/10 09:07:16;;;;;;;1.98;1.52;;;20.50;66.40;;;;;;4903099;29;20036;-81
2021/08/10 09:09:46;;;;;;;2.40;1.70;;;20.50;66.30;;;;;;4901934;29;20052;-81
2021/08/10 09:12:17;;;;;;;2.67;1.63;;;20.60;66.30;;;;;;4888901;29;20032;-81
2021/08/10 09:14:50;;;;;;;1.75;1.48;;;20.70;66.20;;;;;;4918007;29;20040;-81
2021/08/10 09:17:23;;;;;;;2.30;1.48;;;20.70;66.10;;;;;;4933621;29;20062;-80
2021/08/10 09:20:02;;;;;;;2.88;1.73;;;20.80;66.10;;;;;;4903146;29;20067;-81
2021/08/10 09:22:32;;;;;;;2.38;1.70;;;20.80;66.00;;;;;;4901651;29;20127;-81
2021/08/10 09:25:16;;;;;;;2.03;1.50;;;20.80;65.90;;;;;;4903180;29;20438;-81
2021/08/10 09:27:44;;;;;;;2.30;1.38;;;20.90;66.00;;;;;;4901963;29;20466;-82
2021/08/10 09:30:15;;;;;;;1.85;1.50;;;20.90;65.80;;;;;;4902525;29;20032;-80
2021/08/10 09:33:00;;;;;;;2.15;1.58;;;20.90;65.90;;;;;;4933056;29;20083;-82
2021/08/10 09:35:31;;;;;;;2.70;1.63;;;21.00;66.00;;;;;;4902244;29;20477;-81
2021/08/10 09:38:17;;;;;;;2.00;1.65;;;21.00;65.80;;;;;;4901460;29;20380;-81
2021/08/10 09:40:53;;;;;;;3.47;2.10;;;21.00;65.90;;;;;;4901658;29;20496;-81
2021/08/10 09:43:24;;;;;;;2.42;1.50;;;21.00;65.80;;;;;;4917016;29;20059;-81
2021/08/10 09:46:14;;;;;;;2.35;1.67;;;21.10;65.80;;;;;;4917291;29;20024;-81
2021/08/10 09:48:49;;;;;;;2.55;1.60;;;21.10;65.90;;;;;;4901427;29;20062;-81
2021/08/10 09:51:18;;;;;;;1.83;1.60;;;21.10;65.80;;;;;;4902000;29;20369;-80
2021/08/10 09:53:53;;;;;;;2.40;1.77;;;21.20;65.80;;;;;;4917570;29;20107;-81
2021/08/10 09:56:19;;;;;;;1.83;1.45;;;21.20;65.80;;;;;;4932943;29;20035;-81
2021/08/10 09:58:56;;;;;;;2.20;1.65;;;21.20;65.70;;;;;;4901053;29;20091;-81
2021/08/10 10:01:32;;;;;;;2.15;1.60;;;21.20;65.80;;;;;;4901126;29;20091;-81
2021/08/10 10:04:22;;;;;;;1.80;1.50;;;21.20;65.70;;;;;;4916577;29;20040;-81
2021/08/10 10:06:57;;;;;;;2.45;1.60;;;21.30;65.80;;;;;;4901835;29;20032;-82
2021/08/10 10:09:27;;;;;;;2.60;1.80;;;21.30;65.60;;;;;;4932612;29;20044;-84
2021/08/10 10:11:55;;;;;;;2.65;1.73;;;21.30;65.60;;;;;;4916827;29;20154;-81
2021/08/10 10:14:25;;;;;;;1.85;1.50;;;21.30;65.50;;;;;;4901337;29;20083;-82
2021/08/10 10:16:52;;;;;;;2.05;1.40;;;21.40;65.60;;;;;;4916531;29;20024;-80
2021/08/10 10:19:20;;;;;;;1.83;1.30;;;21.40;65.50;;;;;;4916212;29;20043;-81
2021/08/10 10:21:55;;;;;;;1.83;1.45;;;21.50;65.60;;;;;;4915994;29;20052;-80
2021/08/10 10:24:23;;;;;;;1.98;1.42;;;21.40;65.50;;;;;;4932102;29;20040;-79
2021/08/10 10:27:05;;;;;;;2.00;1.30;;;21.50;65.60;;;;;;4916883;29;20020;-81
2021/08/10 10:29:31;;;;;;;1.85;1.35;;;21.50;65.60;;;;;;4932975;29;20032;-81
2021/08/10 10:31:58;;;;;;;2.65;1.77;;;21.60;65.50;;;;;;4900494;29;20039;-81
2021/08/10 10:34:25;;;;;;;2.70;1.50;;;21.60;65.50;;;;;;4916095;29;20051;-81
2021/08/10 10:36:51;;;;;;;1.85;1.40;;;21.60;65.40;;;;;;4916074;29;20024;-81
2021/08/10 10:39:36;;;;;;;2.22;1.42;;;21.70;65.40;;;;;;4916996;29;20438;-82
2021/08/10 10:42:07;;;;;;;2.30;1.50;;;21.70;65.40;;;;;;4900571;29;20548;-81
2021/08/10 10:44:43;;;;;;;1.77;1.38;;;21.80;65.30;;;;;;4916588;29;20032;-83
2021/08/10 10:47:21;;;;;;;1.60;1.25;;;21.80;65.20;;;;;;4916001;29;20036;-82
2021/08/10 10:49:48;;;;;;;1.67;1.30;;;21.90;65.30;;;;;;4916163;29;20034;-82
2021/08/10 10:52:18;;;;;;;1.38;1.27;;;21.90;65.10;;;;;;4900362;29;20024;-82
2021/08/10 10:54:45;;;;;;;1.77;1.30;;;22.00;65.10;;;;;;4915854;29;20036;-83
2021/08/10 10:57:30;;;;;;;1.90;1.30;;;22.00;65.00;;;;;;4900729;29;20549;-83
2021/08/10 11:00:08;;;;;;;1.60;1.50;;;22.00;65.10;;;;;;4916134;29;20036;-82
2021/08/10 11:02:38;;;;;;;1.30;1.20;;;22.10;65.00;;;;;;4917053;29;20537;-82
2021/08/10 11:05:17;;;;;;;1.58;1.30;;;22.10;64.90;;;;;;4900573;29;20109;-83
2021/08/10 11:07:54;;;;;;;1.98;1.38;;;22.20;64.90;;;;;;4904386;29;20036;-83
2021/08/10 11:10:23;;;;;;;1.60;1.20;;;22.20;64.80;;;;;;4936167;29;20119;-82
2021/08/10 11:12:49;;;;;;;2.00;1.25;;;22.30;64.80;;;;;;4919889;29;20028;-82
2021/08/10 11:15:19;;;;;;;1.67;1.30;;;22.30;64.70;;;;;;4904424;29;20044;-82
2021/08/10 11:18:07;;;;;;;2.53;1.52;;;22.30;64.70;;;;;;4904236;29;20381;-82
2021/08/10 11:20:35;;;;;;;2.38;1.50;;;22.40;64.80;;;;;;4903464;29;20131;-83
2021/08/10 11:23:20;;;;;;;1.83;1.48;;;22.40;64.60;;;;;;4903749;29;20052;-83
2021/08/10 11:26:08;;;;;;;2.00;1.60;;;22.50;64.80;;;;;;4921050;29;20067;-83
2021/08/10 11:28:37;;;;;;;1.83;1.15;;;22.50;64.80;;;;;;4913615;29;20049;-84
2021/08/10 11:31:05;;;;;;;2.88;1.40;;;22.50;64.50;;;;;;4919721;29;20377;-83
2021/08/10 11:33:34;;;;;;;2.25;1.50;;;22.60;64.60;;;;;;4903852;29;20040;-82
2021/08/10 11:36:12;;;;;;;1.38;1.17;;;22.60;64.60;;;;;;4920106;29;20056;-83
2021/08/10 11:38:43;;;;;;;1.80;1.38;;;22.60;64.70;;;;;;4920049;29;20419;-82
2021/08/10 11:41:11;;;;;;;1.85;1.60;;;22.70;64.60;;;;;;4919629;29;20388;-83
2021/08/10 11:43:48;;;;;;;1.98;1.42;;;22.70;64.60;;;;;;4920645;29;21975;-83
2021/08/10 11:46:14;;;;;;;3.05;1.50;;;22.80;64.60;;;;;;4919002;29;20036;-83
2021/08/10 11:48:45;;;;;;;1.70;1.27;;;22.80;64.50;;;;;;4903687;29;20485;-83
2021/08/10 11:51:26;;;;;;;2.53;1.50;;;22.80;64.60;;;;;;4918884;29;20095;-83
2021/08/10 11:54:05;;;;;;;2.00;1.50;;;22.90;64.60;;;;;;4920586;29;20070;-83
2021/08/10 11:56:33;;;;;;;1.70;1.30;;;22.90;64.60;;;;;;4903615;29;20172;-82
2021/08/10 11:59:01;;;;;;;2.08;1.48;;;23.00;64.50;;;;;;4920246;29;20020;-82
2021/08/10 12:01:38;;;;;;;2.00;1.63;;;23.00;64.60;;;;;;4903707;29;20028;-83
2021/08/10 12:04:19;;;;;;;1.55;1.33;;;23.10;64.70;;;;;;4903493;29;20043;-83
2021/08/10 12:06:47;;;;;;;1.67;1.38;;;23.10;64.60;;;;;;4921427;29;20044;-83
2021/08/10 12:09:22;;;;;;;1.92;1.38;;;23.10;64.50;;;;;;4919973;29;20028;-83
2021/08/10 12:11:56;;;;;;;2.30;1.80;;;23.20;64.60;;;;;;4904022;29;20183;-82
2021/08/10 12:14:24;;;;;;;;;;;23.20;64.60;;;;;;4903589;29;20442;-82
2021/08/10 12:16:58;;;;;;;2.28;1.40;;;23.20;64.40;;;;;;4918526;29;19907;-82
2021/08/10 12:19:31;;;;;;;1.60;1.40;;;23.30;64.40;;;;;;4918537;29;20549;-82
2021/08/10 12:21:58;;;;;;;1.77;1.38;;;23.30;64.50;;;;;;4903076;29;20099;-82
2021/08/10 12:24:26;;;;;;;1.95;1.30;;;23.30;64.40;;;;;;4902648;29;20051;-82
2021/08/10 12:26:52;;;;;;;2.42;1.60;;;23.40;64.50;;;;;;4918545;29;20036;-82
2021/08/10 12:29:18;;;;;;;2.50;1.70;;;23.40;64.50;;;;;;4919421;29;20426;-83
2021/08/10 12:31:45;;;;;;;2.50;1.70;;;23.40;64.40;;;;;;4919668;29;20047;-83
2021/08/10 12:34:11;;;;;;;2.40;1.52;;;23.50;64.50;;;;;;4918682;29;20036;-83
2021/08/10 12:36:51;;;;;;;2.15;1.50;;;23.50;64.30;;;;;;4902281;29;20039;-82
2021/08/10 12:39:17;;;;;;;1.67;1.30;;;23.50;64.20;;;;;;4902891;29;20032;-82
2021/08/10 12:41:44;;;;;;;1.40;1.30;;;23.60;64.10;;;;;;4917863;29;20028;-83
2021/08/10 12:44:11;;;;;;;1.95;1.40;;;23.60;64.00;;;;;;4902751;29;20047;-82
2021/08/10 12:46:37;;;;;;;3.25;1.60;;;23.60;63.90;;;;;;4902412;29;20127;-83
2021/08/10 12:49:16;;;;;;;2.28;1.50;;;23.70;63.90;;;;;;4902420;29;20051;-82
2021/08/10 12:51:53;;;;;;;2.90;1.70;;;23.70;63.80;;;;;;4918247;29;20466;-82
2021/08/10 12:54:19;;;;;;;1.45;1.27;;;23.70;63.70;;;;;;4934041;29;20440;-83
2021/08/10 12:56:45;;;;;;;2.70;1.50;;;23.70;63.60;;;;;;4918148;29;20024;-82
2021/08/10 12:59:11;;;;;;;2.45;1.63;;;23.80;63.60;;;;;;4917654;29;20055;-83
2021/08/10 13:01:44;;;;;;;1.88;1.38;;;23.80;63.60;;;;;;4917777;29;20024;-82